sensor_id;sensor_type;location;lat;lon;timestamp;pressure;altitude;pressure_sealevel;temperature;humidity
53719;BME280;39616;48.872;9.390;2023-03-22T00:02:27;98194.47;;;7.79;100.00
53719;BME280;39616;48.872;9.390;2023-03-22T00:04:59;98197.53;;;7.67;100.00
53719;BME280;39616;48.872;9.390;2023-03-22T00:07:30;98199.97;;;7.64;100.00
53719;BME280;39616;48.872;9.390;2023-03-22T00:10:00;98188.69;;;7.57;100.00
53719;BME280;39616;48.872;9.390;2023-03-22T00:12:30;98192.50;;;7.50;100.00
53719;BME280;39616;48.872;9.390;2023-03-22T00:15:01;98194.69;;;7.48;100.00
53719;BME280;39616;48.872;9.390;2023-03-22T00:17:31;98196.03;;;7.46;100.00
53719;BME280;39616;48.872;9.390;2023-03-22T00:20:03;98197.38;;;7.43;100.00
53719;BME280;39616;48.872;9.390;2023-03-22T00:22:35;98193.44;;;7.31;100.00
53719;BME280;39616;48.872;9.390;2023-03-22T00:25:06;98192.13;;;7.23;100.00
53719;BME280;39616;48.872;9.390;2023-03-22T00:27:36;98185.69;;;7.14;100.00
53719;BME280;39616;48.872;9.390;2023-03-22T00:30:08;98173.56;;;7.11;100.00
53719;BME280;39616;48.872;9.390;2023-03-22T00:32:39;98171.72;;;7.01;100.00
53719;BME280;39616;48.872;9.390;2023-03-22T00:35:11;98184.44;;;6.96;100.00
53719;BME280;39616;48.872;9.390;2023-03-22T00:37:41;98173.91;;;6.94;100.00
53719;BME280;39616;48.872;9.390;2023-03-22T00:40:12;98174.47;;;6.91;100.00
53719;BME280;39616;48.872;9.390;2023-03-22T00:42:43;98174.47;;;6.91;100.00
53719;BME280;39616;48.872;9.390;2023-03-22T00:45:13;98174.13;;;7.03;100.00
53719;BME280;39616;48.872;9.390;2023-03-22T00:47:43;98175.47;;;7.11;100.00
53719;BME280;39616;48.872;9.390;2023-03-22T00:50:14;98167.63;;;7.09;100.00
53719;BME280;39616;48.872;9.390;2023-03-22T00:52:45;98162.78;;;7.06;100.00
53719;BME280;39616;48.872;9.390;2023-03-22T00:55:15;98161.75;;;7.02;100.00
53719;BME280;39616;48.872;9.390;2023-03-22T00:57:45;98159.34;;;7.00;100.00
53719;BME280;39616;48.872;9.390;2023-03-22T01:00:16;98157.22;;;6.92;100.00
53719;BME280;39616;48.872;9.390;2023-03-22T01:02:46;98163.19;;;6.79;100.00
53719;BME280;39616;48.872;9.390;2023-03-22T01:05:17;98158.63;;;6.69;100.00
53719;BME280;39616;48.872;9.390;2023-03-22T01:07:50;98158.91;;;6.63;100.00
53719;BME280;39616;48.872;9.390;2023-03-22T01:10:21;98164.88;;;6.60;100.00
53719;BME280;39616;48.872;9.390;2023-03-22T01:12:51;98157.31;;;6.62;100.00
53719;BME280;39616;48.872;9.390;2023-03-22T01:15:23;98158.91;;;6.63;100.00
53719;BME280;39616;48.872;9.390;2023-03-22T01:17:53;98156.78;;;6.65;100.00
53719;BME280;39616;48.872;9.390;2023-03-22T01:20:24;98147.84;;;6.69;100.00
53719;BME280;39616;48.872;9.390;2023-03-22T01:22:55;98147.31;;;6.72;100.00
53719;BME280;39616;48.872;9.390;2023-03-22T01:25:25;98140.56;;;6.75;100.00
53719;BME280;39616;48.872;9.390;2023-03-22T01:27:55;98137.88;;;6.75;100.00
53719;BME280;39616;48.872;9.390;2023-03-22T01:30:26;98140.06;;;6.68;100.00
53719;BME280;39616;48.872;9.390;2023-03-22T01:32:58;98139.00;;;6.64;100.00
53719;BME280;39616;48.872;9.390;2023-03-22T01:35:29;98126.59;;;6.63;100.00
53719;BME280;39616;48.872;9.390;2023-03-22T01:38:00;98124.47;;;6.54;100.00
53719;BME280;39616;48.872;9.390;2023-03-22T01:40:31;98125.78;;;6.62;100.00
53719;BME280;39616;48.872;9.390;2023-03-22T01:43:02;98120.44;;;6.57;100.00
53719;BME280;39616;48.872;9.390;2023-03-22T01:45:40;98117.47;;;6.53;100.00
53719;BME280;39616;48.872;9.390;2023-03-22T01:48:15;98122.06;;;6.53;100.00
53719;BME280;39616;48.872;9.390;2023-03-22T01:50:52;98120.75;;;6.45;100.00
53719;BME280;39616;48.872;9.390;2023-03-22T01:53:25;98113.19;;;6.47;100.00
53719;BME280;39616;48.872;9.390;2023-03-22T01:55:56;98107.28;;;6.40;100.00
53719;BME280;39616;48.872;9.390;2023-03-22T01:58:27;98106.75;;;6.33;100.00
53719;BME280;39616;48.872;9.390;2023-03-22T02:00:58;98104.09;;;6.28;100.00
53719;BME280;39616;48.872;9.390;2023-03-22T02:03:39;98111.38;;;6.22;100.00
53719;BME280;39616;48.872;9.390;2023-03-22T02:06:13;98110.59;;;6.17;100.00
53719;BME280;39616;48.872;9.390;2023-03-22T02:08:44;98110.59;;;6.17;100.00
53719;BME280;39616;48.872;9.390;2023-03-22T02:11:17;98106.81;;;6.18;100.00
53719;BME280;39616;48.872;9.390;2023-03-22T02:14:00;98111.38;;;6.17;100.00
53719;BME280;39616;48.872;9.390;2023-03-22T02:25:17;98096.84;;;6.23;100.00
53719;BME280;39616;48.872;9.390;2023-03-22T02:28:18;98085.84;;;6.04;100.00
53719;BME280;39616;48.872;9.390;2023-03-22T02:39:46;98088.00;;;5.82;100.00
53719;BME280;39616;48.872;9.390;2023-03-22T02:42:39;98082.09;;;5.75;100.00
53719;BME280;39616;48.872;9.390;2023-03-22T02:45:33;98087.72;;;5.73;100.00
53719;BME280;39616;48.872;9.390;2023-03-22T02:48:16;98085.31;;;5.72;100.00
53719;BME280;39616;48.872;9.390;2023-03-22T02:51:16;98085.06;;;5.68;100.00
53719;BME280;39616;48.872;9.390;2023-03-22T02:54:08;98084.25;;;5.63;100.00
53719;BME280;39616;48.872;9.390;2023-03-22T02:56:48;98081.03;;;5.61;100.00
53719;BME280;39616;48.872;9.390;2023-03-22T02:59:21;98083.16;;;5.58;100.00
53719;BME280;39616;48.872;9.390;2023-03-22T03:01:58;98086.94;;;5.57;100.00
53719;BME280;39616;48.872;9.390;2023-03-22T03:04:33;98083.44;;;5.57;100.00
53719;BME280;39616;48.872;9.390;2023-03-22T03:07:07;98088.03;;;5.56;100.00
53719;BME280;39616;48.872;9.390;2023-03-22T03:09:40;98084.53;;;5.56;100.00
53719;BME280;39616;48.872;9.390;2023-03-22T03:12:23;98086.66;;;5.54;100.00
53719;BME280;39616;48.872;9.390;2023-03-22T03:14:54;98078.88;;;5.47;100.00
53719;BME280;39616;48.872;9.390;2023-03-22T03:21:03;98075.66;;;5.35;100.00
53719;BME280;39616;48.872;9.390;2023-03-22T03:23:53;98081.03;;;5.35;100.00
53719;BME280;39616;48.872;9.390;2023-03-22T03:26:40;98095.00;;;5.32;100.00
53719;BME280;39616;48.872;9.390;2023-03-22T03:32:25;98087.47;;;5.24;100.00
53719;BME280;39616;48.872;9.390;2023-03-22T03:35:04;98090.69;;;5.26;100.00
53719;BME280;39616;48.872;9.390;2023-03-22T03:37:40;98094.16;;;5.26;100.00
53719;BME280;39616;48.872;9.390;2023-03-22T03:40:17;98091.47;;;5.26;100.00
53719;BME280;39616;48.872;9.390;2023-03-22T03:42:51;98090.44;;;5.27;100.00
53719;BME280;39616;48.872;9.390;2023-03-22T03:45:23;98092.31;;;5.27;100.00
53719;BME280;39616;48.872;9.390;2023-03-22T03:47:58;98096.88;;;5.31;100.00
53719;BME280;39616;48.872;9.390;2023-03-22T03:50:30;98093.91;;;5.33;100.00
53719;BME280;39616;48.872;9.390;2023-03-22T03:53:00;98089.91;;;5.30;100.00
53719;BME280;39616;48.872;9.390;2023-03-22T03:55:31;98097.97;;;5.30;100.00
53719;BME280;39616;48.872;9.390;2023-03-22T03:58:02;98097.69;;;5.27;100.00
53719;BME280;39616;48.872;9.390;2023-03-22T04:00:32;98096.63;;;5.28;100.00
53719;BME280;39616;48.872;9.390;2023-03-22T04:03:04;98101.72;;;5.24;100.00
53719;BME280;39616;48.872;9.390;2023-03-22T04:05:35;98099.31;;;5.23;100.00
53719;BME280;39616;48.872;9.390;2023-03-22T04:08:06;98104.66;;;5.18;100.00
53719;BME280;39616;48.872;9.390;2023-03-22T04:10:36;98100.34;;;5.12;100.00
53719;BME280;39616;48.872;9.390;2023-03-22T04:13:06;98101.41;;;5.11;100.00
53719;BME280;39616;48.872;9.390;2023-03-22T04:15:37;98103.56;;;5.08;100.00
53719;BME280;39616;48.872;9.390;2023-03-22T04:18:08;98097.66;;;5.06;100.00
53719;BME280;39616;48.872;9.390;2023-03-22T04:20:40;98096.28;;;5.04;100.00
53719;BME280;39616;48.872;9.390;2023-03-22T04:23:10;98096.00;;;5.00;100.00
53719;BME280;39616;48.872;9.390;2023-03-22T04:25:41;98100.06;;;4.98;100.00
53719;BME280;39616;48.872;9.390;2023-03-22T04:28:12;98103.53;;;4.93;100.00
53719;BME280;39616;48.872;9.390;2023-03-22T04:30:42;98097.09;;;4.94;100.00
53719;BME280;39616;48.872;9.390;2023-03-22T04:33:14;98100.31;;;4.91;100.00
53719;BME280;39616;48.872;9.390;2023-03-22T04:35:45;98099.22;;;4.92;100.00
53719;BME280;39616;48.872;9.390;2023-03-22T04:38:15;98093.56;;;4.89;100.00
53719;BME280;39616;48.872;9.390;2023-03-22T04:40:45;98086.03;;;4.85;100.00
53719;BME280;39616;48.872;9.390;2023-03-22T04:43:16;98088.16;;;4.78;100.00
53719;BME280;39616;48.872;9.390;2023-03-22T04:45:47;98092.97;;;4.71;100.00
53719;BME280;39616;48.872;9.390;2023-03-22T04:48:18;98078.22;;;4.69;100.00
53719;BME280;39616;48.872;9.390;2023-03-22T04:50:51;98079.53;;;4.66;100.00
53719;BME280;39616;48.872;9.390;2023-03-22T04:53:22;98079.78;;;4.59;100.00
53719;BME280;39616;48.872;9.390;2023-03-22T04:55:56;98073.38;;;4.60;100.00
53719;BME280;39616;48.872;9.390;2023-03-22T04:58:26;98072.25;;;4.56;100.00
53719;BME280;39616;48.872;9.390;2023-03-22T05:00:57;98069.84;;;4.55;100.00
53719;BME280;39616;48.872;9.390;2023-03-22T05:03:27;98068.19;;;4.49;100.00
53719;BME280;39616;48.872;9.390;2023-03-22T05:05:59;98055.56;;;4.44;100.00
53719;BME280;39616;48.872;9.390;2023-03-22T05:08:30;98054.47;;;4.45;100.00
53719;BME280;39616;48.872;9.390;2023-03-22T05:11:09;98059.34;;;4.48;100.00
53719;BME280;39616;48.872;9.390;2023-03-22T05:13:41;98054.00;;;4.53;100.00
53719;BME280;39616;48.872;9.390;2023-03-22T05:16:12;98056.69;;;4.58;100.00
53719;BME280;39616;48.872;9.390;2023-03-22T05:18:42;98047.06;;;4.68;100.00
53719;BME280;39616;48.872;9.390;2023-03-22T05:21:17;98048.16;;;4.77;100.00
53719;BME280;39616;48.872;9.390;2023-03-22T05:23:51;98042.53;;;4.83;100.00
53719;BME280;39616;48.872;9.390;2023-03-22T05:26:22;98030.44;;;4.86;100.00
53719;BME280;39616;48.872;9.390;2023-03-22T05:28:54;98030.69;;;4.90;100.00
53719;BME280;39616;48.872;9.390;2023-03-22T05:31:24;98036.91;;;4.95;100.00
53719;BME280;39616;48.872;9.390;2023-03-22T05:33:57;98037.16;;;4.99;100.00
53719;BME280;39616;48.872;9.390;2023-03-22T05:36:28;98043.91;;;5.06;100.00
53719;BME280;39616;48.872;9.390;2023-03-22T05:39:01;98042.84;;;5.13;100.00
53719;BME280;39616;48.872;9.390;2023-03-22T05:41:32;98040.41;;;5.31;100.00
53719;BME280;39616;48.872;9.390;2023-03-22T05:44:03;98038.00;;;5.40;100.00
53719;BME280;39616;48.872;9.390;2023-03-22T05:46:34;98047.66;;;5.51;100.00
53719;BME280;39616;48.872;9.390;2023-03-22T05:49:04;98041.72;;;5.60;100.00
53719;BME280;39616;48.872;9.390;2023-03-22T05:51:34;98047.13;;;5.65;100.00
53719;BME280;39616;48.872;9.390;2023-03-22T05:54:10;98049.28;;;5.68;100.00
53719;BME280;39616;48.872;9.390;2023-03-22T05:56:41;98050.59;;;5.80;100.00
53719;BME280;39616;48.872;9.390;2023-03-22T05:59:13;98045.75;;;5.77;100.00
53719;BME280;39616;48.872;9.390;2023-03-22T06:01:43;98042.25;;;5.82;100.00
53719;BME280;39616;48.872;9.390;2023-03-22T06:04:13;98048.69;;;5.91;100.00
53719;BME280;39616;48.872;9.390;2023-03-22T06:06:44;98042.25;;;5.87;100.00
53719;BME280;39616;48.872;9.390;2023-03-22T06:09:14;98054.06;;;5.91;100.00
53719;BME280;39616;48.872;9.390;2023-03-22T06:11:44;98051.66;;;6.00;100.00
53719;BME280;39616;48.872;9.390;2023-03-22T06:14:15;98054.06;;;6.07;100.00
53719;BME280;39616;48.872;9.390;2023-03-22T06:16:45;98049.44;;;6.27;100.00
53719;BME280;39616;48.872;9.390;2023-03-22T06:19:16;98043.16;;;6.47;100.00
53719;BME280;39616;48.872;9.390;2023-03-22T06:21:46;98048.97;;;6.70;100.00
53719;BME280;39616;48.872;9.390;2023-03-22T06:24:17;98047.75;;;6.91;100.00
53719;BME280;39616;48.872;9.390;2023-03-22T06:26:47;98057.88;;;7.15;100.00
53719;BME280;39616;48.872;9.390;2023-03-22T06:29:18;98057.72;;;7.35;100.00
53719;BME280;39616;48.872;9.390;2023-03-22T06:31:48;98059.59;;;7.69;99.94
53719;BME280;39616;48.872;9.390;2023-03-22T06:34:18;98065.53;;;7.95;97.01
53719;BME280;39616;48.872;9.390;2023-03-22T06:36:49;98068.97;;;8.30;93.94
53719;BME280;39616;48.872;9.390;2023-03-22T06:39:19;98069.59;;;8.51;91.89
53719;BME280;39616;48.872;9.390;2023-03-22T06:41:50;98065.69;;;8.81;89.22
53719;BME280;39616;48.872;9.390;2023-03-22T06:44:20;98061.53;;;9.07;88.24
53719;BME280;39616;48.872;9.390;2023-03-22T06:46:51;98070.38;;;9.32;85.61
53719;BME280;39616;48.872;9.390;2023-03-22T06:49:22;98074.06;;;9.55;84.37
53719;BME280;39616;48.872;9.390;2023-03-22T06:51:53;98072.75;;;9.85;82.34
53719;BME280;39616;48.872;9.390;2023-03-22T06:54:23;98072.28;;;10.10;80.93
53719;BME280;39616;48.872;9.390;2023-03-22T06:56:53;98075.00;;;10.24;80.10
53719;BME280;39616;48.872;9.390;2023-03-22T06:59:24;98075.34;;;10.50;76.97
53719;BME280;39616;48.872;9.390;2023-03-22T07:01:55;98078.81;;;10.78;75.46
53719;BME280;39616;48.872;9.390;2023-03-22T07:04:25;98077.69;;;10.93;74.79
53719;BME280;39616;48.872;9.390;2023-03-22T07:06:57;98061.91;;;11.09;73.02
53719;BME280;39616;48.872;9.390;2023-03-22T07:09:27;98058.22;;;11.27;72.88
53719;BME280;39616;48.872;9.390;2023-03-22T07:11:58;98065.25;;;11.51;71.62
53719;BME280;39616;48.872;9.390;2023-03-22T07:14:28;98071.94;;;11.67;71.17
53719;BME280;39616;48.872;9.390;2023-03-22T07:16:58;98066.56;;;11.98;70.72
53719;BME280;39616;48.872;9.390;2023-03-22T07:19:29;98080.19;;;12.07;70.19
53719;BME280;39616;48.872;9.390;2023-03-22T07:22:00;98074.50;;;12.26;69.56
53719;BME280;39616;48.872;9.390;2023-03-22T07:24:30;98076.06;;;12.49;67.67
53719;BME280;39616;48.872;9.390;2023-03-22T07:27:01;98065.53;;;12.65;67.12
53719;BME280;39616;48.872;9.390;2023-03-22T07:29:31;98067.34;;;12.87;67.05
53719;BME280;39616;48.872;9.390;2023-03-22T07:32:01;98066.88;;;13.02;64.76
53719;BME280;39616;48.872;9.390;2023-03-22T07:34:32;98065.47;;;13.05;63.79
53719;BME280;39616;48.872;9.390;2023-03-22T07:37:02;98061.78;;;13.10;64.04
53719;BME280;39616;48.872;9.390;2023-03-22T07:39:33;98060.53;;;13.24;63.30
53719;BME280;39616;48.872;9.390;2023-03-22T07:42:05;98058.78;;;13.28;63.13
53719;BME280;39616;48.872;9.390;2023-03-22T07:44:35;98061.94;;;13.65;62.13
53719;BME280;39616;48.872;9.390;2023-03-22T07:47:06;98068.03;;;13.62;61.76
53719;BME280;39616;48.872;9.390;2023-03-22T07:49:36;98062.44;;;13.50;59.83
53719;BME280;39616;48.872;9.390;2023-03-22T07:52:06;98060.97;;;13.78;59.29
53719;BME280;39616;48.872;9.390;2023-03-22T07:54:37;98061.63;;;13.75;60.85
53719;BME280;39616;48.872;9.390;2023-03-22T07:57:08;98061.88;;;14.09;58.78
53719;BME280;39616;48.872;9.390;2023-03-22T07:59:38;98068.72;;;14.23;58.37
53719;BME280;39616;48.872;9.390;2023-03-22T08:02:10;98075.56;;;14.38;57.60
53719;BME280;39616;48.872;9.390;2023-03-22T08:04:40;98070.50;;;14.66;57.95
53719;BME280;39616;48.872;9.390;2023-03-22T08:07:10;98067.69;;;14.75;57.52
53719;BME280;39616;48.872;9.390;2023-03-22T08:09:40;98067.09;;;14.99;56.69
53719;BME280;39616;48.872;9.390;2023-03-22T08:12:12;98064.63;;;15.27;54.65
53719;BME280;39616;48.872;9.390;2023-03-22T08:14:42;98068.00;;;15.45;55.93
53719;BME280;39616;48.872;9.390;2023-03-22T08:17:17;98066.22;;;15.49;54.43
53719;BME280;39616;48.872;9.390;2023-03-22T08:19:47;98072.19;;;15.63;52.75
53719;BME280;39616;48.872;9.390;2023-03-22T08:22:19;98073.66;;;15.61;54.10
53719;BME280;39616;48.872;9.390;2023-03-22T08:24:54;98070.38;;;15.88;53.18
53719;BME280;39616;48.872;9.390;2023-03-22T08:27:25;98074.13;;;16.17;51.92
53719;BME280;39616;48.872;9.390;2023-03-22T08:29:56;98069.13;;;16.31;51.30
53719;BME280;39616;48.872;9.390;2023-03-22T08:32:27;98065.91;;;16.41;52.24
53719;BME280;39616;48.872;9.390;2023-03-22T08:34:57;98067.41;;;16.63;52.16
53719;BME280;39616;48.872;9.390;2023-03-22T08:37:27;98054.91;;;16.87;50.43
53719;BME280;39616;48.872;9.390;2023-03-22T08:39:58;98061.81;;;17.09;52.28
53719;BME280;39616;48.872;9.390;2023-03-22T08:42:28;98056.38;;;17.37;49.47
53719;BME280;39616;48.872;9.390;2023-03-22T08:44:59;98058.69;;;17.23;48.55
53719;BME280;39616;48.872;9.390;2023-03-22T08:47:29;98055.41;;;17.17;49.49
53719;BME280;39616;48.872;9.390;2023-03-22T08:50:00;98053.72;;;17.12;49.90
53719;BME280;39616;48.872;9.390;2023-03-22T08:52:31;98056.06;;;17.26;49.61
53719;BME280;39616;48.872;9.390;2023-03-22T08:55:02;98056.47;;;17.81;48.02
53719;BME280;39616;48.872;9.390;2023-03-22T08:57:33;98054.47;;;18.25;48.49
53719;BME280;39616;48.872;9.390;2023-03-22T09:00:04;98050.84;;;18.37;46.93
53719;BME280;39616;48.872;9.390;2023-03-22T09:02:35;98053.88;;;18.64;45.84
53719;BME280;39616;48.872;9.390;2023-03-22T09:05:06;98052.09;;;18.08;46.77
53719;BME280;39616;48.872;9.390;2023-03-22T09:07:37;98049.38;;;17.80;46.70
53719;BME280;39616;48.872;9.390;2023-03-22T09:10:08;98046.03;;;18.97;45.41
53719;BME280;39616;48.872;9.390;2023-03-22T09:12:38;98048.00;;;19.51;46.14
53719;BME280;39616;48.872;9.390;2023-03-22T09:15:09;98045.50;;;19.08;45.03
53719;BME280;39616;48.872;9.390;2023-03-22T09:17:39;98041.44;;;18.70;45.29
53719;BME280;39616;48.872;9.390;2023-03-22T09:20:09;98036.31;;;17.61;47.28
53719;BME280;39616;48.872;9.390;2023-03-22T09:22:40;98024.88;;;18.66;45.72
53719;BME280;39616;48.872;9.390;2023-03-22T09:25:10;98033.31;;;18.26;45.92
53719;BME280;39616;48.872;9.390;2023-03-22T09:27:41;98031.91;;;18.64;46.96
53719;BME280;39616;48.872;9.390;2023-03-22T09:30:11;98036.50;;;18.59;46.72
53719;BME280;39616;48.872;9.390;2023-03-22T09:32:42;98028.69;;;18.62;47.08
53719;BME280;39616;48.872;9.390;2023-03-22T09:35:12;98021.44;;;18.69;45.87
53719;BME280;39616;48.872;9.390;2023-03-22T09:37:42;98027.69;;;19.01;45.51
53719;BME280;39616;48.872;9.390;2023-03-22T09:40:15;98016.50;;;19.49;44.92
53719;BME280;39616;48.872;9.390;2023-03-22T09:42:51;98015.69;;;19.10;44.76
53719;BME280;39616;48.872;9.390;2023-03-22T09:45:33;98013.16;;;19.59;44.13
53719;BME280;39616;48.872;9.390;2023-03-22T09:48:19;98018.22;;;19.18;44.80
53719;BME280;39616;48.872;9.390;2023-03-22T09:50:52;98017.50;;;19.60;45.32
53719;BME280;39616;48.872;9.390;2023-03-22T09:53:26;98015.13;;;19.39;43.84
53719;BME280;39616;48.872;9.390;2023-03-22T09:56:12;98013.28;;;20.51;44.13
53719;BME280;39616;48.872;9.390;2023-03-22T09:58:50;98003.69;;;20.45;43.68
53719;BME280;39616;48.872;9.390;2023-03-22T10:01:36;97992.50;;;20.34;42.55
53719;BME280;39616;48.872;9.390;2023-03-22T10:10:17;97992.22;;;19.93;42.88
53719;BME280;39616;48.872;9.390;2023-03-22T10:13:14;97987.63;;;19.20;43.48
53719;BME280;39616;48.872;9.390;2023-03-22T10:15:49;97982.78;;;18.11;45.16
53719;BME280;39616;48.872;9.390;2023-03-22T10:18:26;97980.28;;;18.89;46.33
53719;BME280;39616;48.872;9.390;2023-03-22T10:21:08;97963.31;;;20.03;45.48
53719;BME280;39616;48.872;9.390;2023-03-22T10:23:44;97962.25;;;19.26;44.26
53719;BME280;39616;48.872;9.390;2023-03-22T10:26:28;97961.06;;;19.47;45.22
53719;BME280;39616;48.872;9.390;2023-03-22T10:29:01;97961.31;;;19.38;47.02
53719;BME280;39616;48.872;9.390;2023-03-22T10:31:32;97951.19;;;19.23;43.83
53719;BME280;39616;48.872;9.390;2023-03-22T10:34:06;97959.06;;;18.03;46.22
53719;BME280;39616;48.872;9.390;2023-03-22T10:36:37;97968.00;;;18.31;46.38
53719;BME280;39616;48.872;9.390;2023-03-22T10:41:55;97957.09;;;19.05;45.25
53719;BME280;39616;48.872;9.390;2023-03-22T10:44:30;97967.13;;;18.27;45.90
53719;BME280;39616;48.872;9.390;2023-03-22T10:47:04;97961.06;;;18.53;45.23
53719;BME280;39616;48.872;9.390;2023-03-22T10:49:41;97951.78;;;18.77;45.25
53719;BME280;39616;48.872;9.390;2023-03-22T10:54:47;97958.53;;;18.99;44.08
53719;BME280;39616;48.872;9.390;2023-03-22T10:57:17;97932.41;;;19.90;44.96
53719;BME280;39616;48.872;9.390;2023-03-22T10:59:49;97944.78;;;20.26;41.45
53719;BME280;39616;48.872;9.390;2023-03-22T11:02:29;97939.97;;;20.69;41.66
53719;BME280;39616;48.872;9.390;2023-03-22T11:05:03;97930.63;;;20.78;41.71
53719;BME280;39616;48.872;9.390;2023-03-22T11:07:42;97930.56;;;20.74;41.98
53719;BME280;39616;48.872;9.390;2023-03-22T11:10:20;97938.66;;;21.23;42.82
53719;BME280;39616;48.872;9.390;2023-03-22T11:13:20;97926.13;;;20.96;40.88
53719;BME280;39616;48.872;9.390;2023-03-22T11:15:57;97937.28;;;20.23;43.17
53719;BME280;39616;48.872;9.390;2023-03-22T11:18:33;97941.59;;;19.75;43.39
53719;BME280;39616;48.872;9.390;2023-03-22T11:21:11;97935.13;;;18.86;45.62
53719;BME280;39616;48.872;9.390;2023-03-22T11:23:52;97947.59;;;18.48;47.60
53719;BME280;39616;48.872;9.390;2023-03-22T11:26:28;97939.97;;;18.93;45.17
53719;BME280;39616;48.872;9.390;2023-03-22T11:29:04;97925.06;;;18.74;46.35
53719;BME280;39616;48.872;9.390;2023-03-22T11:31:57;97932.22;;;18.28;45.78
53719;BME280;39616;48.872;9.390;2023-03-22T11:34:29;97912.84;;;19.11;46.55
53719;BME280;39616;48.872;9.390;2023-03-22T11:37:00;97918.19;;;18.84;45.20
53719;BME280;39616;48.872;9.390;2023-03-22T11:39:45;97912.13;;;19.56;44.59
53719;BME280;39616;48.872;9.390;2023-03-22T11:42:18;97899.81;;;19.69;45.36
53719;BME280;39616;48.872;9.390;2023-03-22T11:44:51;97900.41;;;19.59;44.42
53719;BME280;39616;48.872;9.390;2023-03-22T11:47:24;97907.84;;;19.78;45.11
53719;BME280;39616;48.872;9.390;2023-03-22T11:49:54;97904.13;;;18.86;46.37
53719;BME280;39616;48.872;9.390;2023-03-22T11:52:26;97897.25;;;19.15;45.65
53719;BME280;39616;48.872;9.390;2023-03-22T11:54:58;97900.63;;;19.50;44.56
53719;BME280;39616;48.872;9.390;2023-03-22T11:57:30;97896.56;;;18.63;46.17
53719;BME280;39616;48.872;9.390;2023-03-22T12:00:12;97896.34;;;18.37;47.51
53719;BME280;39616;48.872;9.390;2023-03-22T12:03:05;97882.09;;;17.96;48.23
53719;BME280;39616;48.872;9.390;2023-03-22T12:05:40;97878.03;;;19.38;46.43
53719;BME280;39616;48.872;9.390;2023-03-22T12:08:20;97865.81;;;19.58;44.47
53719;BME280;39616;48.872;9.390;2023-03-22T12:10:56;97860.56;;;20.22;44.64
53719;BME280;39616;48.872;9.390;2023-03-22T12:13:58;97861.75;;;19.71;43.42
53719;BME280;39616;48.872;9.390;2023-03-22T12:16:48;97849.13;;;19.24;45.42
53719;BME280;39616;48.872;9.390;2023-03-22T12:22:22;97850.16;;;18.58;46.66
53719;BME280;39616;48.872;9.390;2023-03-22T12:24:55;97853.38;;;18.44;47.30
53719;BME280;39616;48.872;9.390;2023-03-22T12:30:03;97848.44;;;19.31;46.06
53719;BME280;39616;48.872;9.390;2023-03-22T12:32:41;97851.47;;;18.83;46.38
53719;BME280;39616;48.872;9.390;2023-03-22T12:35:18;97849.91;;;18.67;47.33
53719;BME280;39616;48.872;9.390;2023-03-22T12:37:51;97846.16;;;18.71;47.95
53719;BME280;39616;48.872;9.390;2023-03-22T12:40:26;97855.06;;;18.49;48.41
53719;BME280;39616;48.872;9.390;2023-03-22T12:43:16;97854.44;;;18.20;49.57
53719;BME280;39616;48.872;9.390;2023-03-22T12:45:51;97852.50;;;18.40;48.78
53719;BME280;39616;48.872;9.390;2023-03-22T12:48:32;97845.03;;;18.21;48.29
53719;BME280;39616;48.872;9.390;2023-03-22T12:51:09;97847.38;;;18.19;49.26
53719;BME280;39616;48.872;9.390;2023-03-22T12:56:16;97841.72;;;18.86;47.68
53719;BME280;39616;48.872;9.390;2023-03-22T12:58:50;97836.97;;;18.48;47.47
53719;BME280;39616;48.872;9.390;2023-03-22T13:03:52;97835.09;;;18.52;47.16
53719;BME280;39616;48.872;9.390;2023-03-22T13:09:18;97833.72;;;18.23;46.42
53719;BME280;39616;48.872;9.390;2023-03-22T13:23:23;97819.00;;;18.70;44.89
53719;BME280;39616;48.872;9.390;2023-03-22T13:25:33;97810.69;;;19.28;45.67
53719;BME280;39616;48.872;9.390;2023-03-22T13:28:23;97806.53;;;19.61;44.08
53719;BME280;39616;48.872;9.390;2023-03-22T13:30:58;97799.34;;;19.29;43.56
53719;BME280;39616;48.872;9.390;2023-03-22T13:33:32;97803.03;;;19.37;44.91
53719;BME280;39616;48.872;9.390;2023-03-22T13:36:21;97796.75;;;19.17;44.67
53719;BME280;39616;48.872;9.390;2023-03-22T13:38:58;97791.78;;;19.23;42.52
53719;BME280;39616;48.872;9.390;2023-03-22T13:41:32;97800.09;;;18.84;41.64
53719;BME280;39616;48.872;9.390;2023-03-22T13:44:27;97783.28;;;19.09;43.83
53719;BME280;39616;48.872;9.390;2023-03-22T13:47:00;97781.69;;;19.08;42.67
53719;BME280;39616;48.872;9.390;2023-03-22T13:49:42;97784.19;;;19.16;42.04
53719;BME280;39616;48.872;9.390;2023-03-22T13:52:25;97777.28;;;19.49;42.39
53719;BME280;39616;48.872;9.390;2023-03-22T13:54:56;97773.88;;;19.10;41.70
53719;BME280;39616;48.872;9.390;2023-03-22T13:57:38;97781.03;;;18.72;41.84
53719;BME280;39616;48.872;9.390;2023-03-22T14:00:39;97761.31;;;18.70;42.01
53719;BME280;39616;48.872;9.390;2023-03-22T14:03:29;97767.72;;;18.74;41.55
53719;BME280;39616;48.872;9.390;2023-03-22T14:06:10;97770.50;;;18.97;41.37
53719;BME280;39616;48.872;9.390;2023-03-22T14:08:45;97759.38;;;19.36;40.58
53719;BME280;39616;48.872;9.390;2023-03-22T14:11:27;97763.56;;;19.26;40.18
53719;BME280;39616;48.872;9.390;2023-03-22T14:14:02;97753.06;;;19.09;40.10
53719;BME280;39616;48.872;9.390;2023-03-22T14:16:51;97743.94;;;19.27;39.56
53719;BME280;39616;48.872;9.390;2023-03-22T14:19:29;97740.88;;;19.82;39.05
53719;BME280;39616;48.872;9.390;2023-03-22T14:22:04;97741.13;;;20.00;37.61
53719;BME280;39616;48.872;9.390;2023-03-22T14:24:37;97739.44;;;19.92;38.16
53719;BME280;39616;48.872;9.390;2023-03-22T14:27:08;97738.13;;;19.82;38.49
53719;BME280;39616;48.872;9.390;2023-03-22T14:29:45;97735.72;;;19.54;40.26
53719;BME280;39616;48.872;9.390;2023-03-22T14:32:24;97739.19;;;19.51;39.26
53719;BME280;39616;48.872;9.390;2023-03-22T14:35:17;97729.28;;;19.69;39.06
53719;BME280;39616;48.872;9.390;2023-03-22T14:37:48;97727.72;;;19.45;37.90